sensor_id;sensor_type;location;lat;lon;timestamp;P1;durP1;ratioP1;P2;durP2;ratioP2
31770;SDS011;18343;50.152;8.182;2022-08-30T01:51:22;5.63;;;2.85;;
31770;SDS011;18343;50.152;8.182;2022-08-30T02:03:21;8.23;;;2.70;;
31770;SDS011;18343;50.152;8.182;2022-08-30T02:09:13;4.50;;;2.33;;
31770;SDS011;18343;50.152;8.182;2022-08-30T02:21:53;3.67;;;2.50;;
31770;SDS011;18343;50.152;8.182;2022-08-30T02:27:30;4.32;;;2.30;;
31770;SDS011;18343;50.152;8.182;2022-08-30T03:01:12;4.43;;;2.70;;
31770;SDS011;18343;50.152;8.182;2022-08-30T03:09:50;5.28;;;2.80;;
31770;SDS011;18343;50.152;8.182;2022-08-30T04:01:12;5.13;;;2.85;;
31770;SDS011;18343;50.152;8.182;2022-08-30T04:05:17;6.40;;;2.70;;
31770;SDS011;18343;50.152;8.182;2022-08-30T04:17:14;5.78;;;2.47;;
31770;SDS011;18343;50.152;8.182;2022-08-30T04:19:41;7.38;;;3.20;;
31770;SDS011;18343;50.152;8.182;2022-08-30T04:22:21;4.93;;;3.28;;
31770;SDS011;18343;50.152;8.182;2022-08-30T04:25:08;7.00;;;3.03;;
31770;SDS011;18343;50.152;8.182;2022-08-30T04:27:55;5.45;;;2.80;;
31770;SDS011;18343;50.152;8.182;2022-08-30T04:30:45;6.47;;;3.28;;
31770;SDS011;18343;50.152;8.182;2022-08-30T04:33:34;5.80;;;3.05;;
31770;SDS011;18343;50.152;8.182;2022-08-30T04:36:21;5.90;;;3.22;;
31770;SDS011;18343;50.152;8.182;2022-08-30T04:43:26;5.63;;;2.50;;
31770;SDS011;18343;50.152;8.182;2022-08-30T04:46:23;5.15;;;2.70;;
31770;SDS011;18343;50.152;8.182;2022-08-30T04:48:50;3.55;;;2.40;;
31770;SDS011;18343;50.152;8.182;2022-08-30T04:51:17;9.05;;;2.75;;
31770;SDS011;18343;50.152;8.182;2022-08-30T04:53:46;7.60;;;2.60;;
31770;SDS011;18343;50.152;8.182;2022-08-30T04:56:14;7.60;;;2.90;;
31770;SDS011;18343;50.152;8.182;2022-08-30T04:58:45;7.50;;;3.13;;
31770;SDS011;18343;50.152;8.182;2022-08-30T05:01:18;7.25;;;3.00;;
31770;SDS011;18343;50.152;8.182;2022-08-30T05:03:46;7.20;;;2.70;;
31770;SDS011;18343;50.152;8.182;2022-08-30T05:06:15;6.57;;;3.17;;
31770;SDS011;18343;50.152;8.182;2022-08-30T05:08:42;7.05;;;3.17;;
31770;SDS011;18343;50.152;8.182;2022-08-30T05:11:09;6.40;;;2.88;;
31770;SDS011;18343;50.152;8.182;2022-08-30T05:13:36;7.78;;;2.47;;
31770;SDS011;18343;50.152;8.182;2022-08-30T05:16:05;6.38;;;2.20;;
31770;SDS011;18343;50.152;8.182;2022-08-30T05:18:32;5.55;;;3.03;;
31770;SDS011;18343;50.152;8.182;2022-08-30T05:21:04;8.77;;;2.88;;
31770;SDS011;18343;50.152;8.182;2022-08-30T05:23:33;6.00;;;2.83;;
31770;SDS011;18343;50.152;8.182;2022-08-30T05:26:03;8.43;;;3.55;;
31770;SDS011;18343;50.152;8.182;2022-08-30T05:28:31;5.28;;;2.75;;
31770;SDS011;18343;50.152;8.182;2022-08-30T05:30:59;9.32;;;2.92;;
31770;SDS011;18343;50.152;8.182;2022-08-30T05:33:27;6.90;;;3.00;;
31770;SDS011;18343;50.152;8.182;2022-08-30T05:35:54;7.18;;;2.78;;
31770;SDS011;18343;50.152;8.182;2022-08-30T05:38:21;4.40;;;2.67;;
31770;SDS011;18343;50.152;8.182;2022-08-30T05:40:48;7.25;;;2.83;;
31770;SDS011;18343;50.152;8.182;2022-08-30T05:43:15;11.05;;;2.50;;
31770;SDS011;18343;50.152;8.182;2022-08-30T05:45:41;8.00;;;2.97;;
31770;SDS011;18343;50.152;8.182;2022-08-30T05:48:08;5.47;;;2.83;;
31770;SDS011;18343;50.152;8.182;2022-08-30T05:50:35;8.65;;;2.78;;
31770;SDS011;18343;50.152;8.182;2022-08-30T05:53:01;5.75;;;2.60;;
31770;SDS011;18343;50.152;8.182;2022-08-30T05:55:28;4.47;;;2.78;;
31770;SDS011;18343;50.152;8.182;2022-08-30T05:57:55;7.88;;;3.20;;
31770;SDS011;18343;50.152;8.182;2022-08-30T06:00:22;10.85;;;3.70;;
31770;SDS011;18343;50.152;8.182;2022-08-30T06:02:51;7.05;;;3.50;;
31770;SDS011;18343;50.152;8.182;2022-08-30T06:05:18;5.97;;;3.25;;
31770;SDS011;18343;50.152;8.182;2022-08-30T06:07:45;13.45;;;3.22;;
31770;SDS011;18343;50.152;8.182;2022-08-30T06:10:12;10.63;;;3.42;;
31770;SDS011;18343;50.152;8.182;2022-08-30T06:12:38;8.00;;;3.70;;
31770;SDS011;18343;50.152;8.182;2022-08-30T06:15:07;12.55;;;3.42;;
31770;SDS011;18343;50.152;8.182;2022-08-30T06:17:34;16.08;;;3.60;;
31770;SDS011;18343;50.152;8.182;2022-08-30T06:20:04;7.95;;;3.63;;
31770;SDS011;18343;50.152;8.182;2022-08-30T06:22:32;7.70;;;3.30;;
31770;SDS011;18343;50.152;8.182;2022-08-30T06:24:59;10.52;;;3.88;;
31770;SDS011;18343;50.152;8.182;2022-08-30T06:27:25;6.70;;;3.47;;
31770;SDS011;18343;50.152;8.182;2022-08-30T06:29:52;10.73;;;4.10;;
31770;SDS011;18343;50.152;8.182;2022-08-30T06:32:19;9.07;;;3.75;;
31770;SDS011;18343;50.152;8.182;2022-08-30T06:34:46;4.95;;;3.00;;
31770;SDS011;18343;50.152;8.182;2022-08-30T06:37:13;12.80;;;3.30;;
31770;SDS011;18343;50.152;8.182;2022-08-30T06:39:41;10.75;;;3.58;;
31770;SDS011;18343;50.152;8.182;2022-08-30T06:42:08;9.85;;;3.97;;
31770;SDS011;18343;50.152;8.182;2022-08-30T06:44:34;6.45;;;3.05;;
31770;SDS011;18343;50.152;8.182;2022-08-30T06:47:01;12.55;;;3.30;;
31770;SDS011;18343;50.152;8.182;2022-08-30T06:49:28;7.32;;;3.50;;
31770;SDS011;18343;50.152;8.182;2022-08-30T06:51:55;10.00;;;3.00;;
31770;SDS011;18343;50.152;8.182;2022-08-30T06:54:24;6.43;;;3.22;;
31770;SDS011;18343;50.152;8.182;2022-08-30T06:56:53;5.97;;;2.88;;
31770;SDS011;18343;50.152;8.182;2022-08-30T06:59:19;6.03;;;3.15;;
31770;SDS011;18343;50.152;8.182;2022-08-30T07:01:46;5.07;;;2.83;;
31770;SDS011;18343;50.152;8.182;2022-08-30T07:04:13;6.05;;;3.25;;
31770;SDS011;18343;50.152;8.182;2022-08-30T07:06:40;6.55;;;3.78;;
31770;SDS011;18343;50.152;8.182;2022-08-30T07:09:07;10.20;;;3.65;;
31770;SDS011;18343;50.152;8.182;2022-08-30T07:11:34;11.13;;;3.30;;
31770;SDS011;18343;50.152;8.182;2022-08-30T07:14:03;10.82;;;3.47;;
31770;SDS011;18343;50.152;8.182;2022-08-30T07:16:30;13.75;;;3.28;;
31770;SDS011;18343;50.152;8.182;2022-08-30T07:18:59;11.10;;;3.65;;
31770;SDS011;18343;50.152;8.182;2022-08-30T07:21:28;15.88;;;3.38;;
31770;SDS011;18343;50.152;8.182;2022-08-30T07:23:58;7.63;;;3.00;;
31770;SDS011;18343;50.152;8.182;2022-08-30T07:26:26;7.13;;;2.85;;
31770;SDS011;18343;50.152;8.182;2022-08-30T07:28:56;12.60;;;3.13;;
31770;SDS011;18343;50.152;8.182;2022-08-30T07:31:23;16.20;;;3.25;;
31770;SDS011;18343;50.152;8.182;2022-08-30T07:33:50;7.57;;;3.05;;
31770;SDS011;18343;50.152;8.182;2022-08-30T07:36:17;6.35;;;3.20;;
31770;SDS011;18343;50.152;8.182;2022-08-30T07:38:46;7.32;;;2.80;;
31770;SDS011;18343;50.152;8.182;2022-08-30T07:41:17;8.52;;;3.03;;
31770;SDS011;18343;50.152;8.182;2022-08-30T07:43:46;6.45;;;3.40;;
31770;SDS011;18343;50.152;8.182;2022-08-30T07:46:14;10.13;;;3.20;;
31770;SDS011;18343;50.152;8.182;2022-08-30T07:48:41;6.00;;;2.70;;
31770;SDS011;18343;50.152;8.182;2022-08-30T07:51:09;12.02;;;2.67;;
31770;SDS011;18343;50.152;8.182;2022-08-30T07:53:37;6.35;;;2.88;;
31770;SDS011;18343;50.152;8.182;2022-08-30T07:56:04;4.95;;;2.70;;
31770;SDS011;18343;50.152;8.182;2022-08-30T08:01:51;5.80;;;2.72;;
31770;SDS011;18343;50.152;8.182;2022-08-30T08:04:18;6.13;;;3.13;;
31770;SDS011;18343;50.152;8.182;2022-08-30T08:06:46;5.15;;;2.53;;
31770;SDS011;18343;50.152;8.182;2022-08-30T08:09:15;6.57;;;2.47;;
31770;SDS011;18343;50.152;8.182;2022-08-30T08:11:42;7.65;;;2.80;;
31770;SDS011;18343;50.152;8.182;2022-08-30T08:14:09;6.25;;;2.83;;
31770;SDS011;18343;50.152;8.182;2022-08-30T08:16:36;4.20;;;2.42;;
31770;SDS011;18343;50.152;8.182;2022-08-30T08:19:03;5.43;;;2.55;;
31770;SDS011;18343;50.152;8.182;2022-08-30T08:21:33;9.60;;;2.85;;
31770;SDS011;18343;50.152;8.182;2022-08-30T08:24:01;4.70;;;2.70;;
31770;SDS011;18343;50.152;8.182;2022-08-30T08:26:28;8.68;;;2.70;;
31770;SDS011;18343;50.152;8.182;2022-08-30T08:28:54;12.65;;;3.50;;
31770;SDS011;18343;50.152;8.182;2022-08-30T08:31:22;11.52;;;2.65;;
31770;SDS011;18343;50.152;8.182;2022-08-30T08:33:52;9.75;;;3.55;;
31770;SDS011;18343;50.152;8.182;2022-08-30T08:36:19;5.00;;;2.65;;
31770;SDS011;18343;50.152;8.182;2022-08-30T08:38:46;10.20;;;2.70;;
31770;SDS011;18343;50.152;8.182;2022-08-30T08:41:17;10.95;;;2.60;;
31770;SDS011;18343;50.152;8.182;2022-08-30T08:43:57;4.15;;;2.55;;
31770;SDS011;18343;50.152;8.182;2022-08-30T08:46:26;10.07;;;2.85;;
31770;SDS011;18343;50.152;8.182;2022-08-30T08:49:01;4.57;;;2.78;;
31770;SDS011;18343;50.152;8.182;2022-08-30T08:51:31;9.90;;;3.10;;
31770;SDS011;18343;50.152;8.182;2022-08-30T08:54:20;11.02;;;2.88;;
31770;SDS011;18343;50.152;8.182;2022-08-30T08:56:53;4.45;;;2.60;;
31770;SDS011;18343;50.152;8.182;2022-08-30T08:59:19;5.65;;;2.63;;
31770;SDS011;18343;50.152;8.182;2022-08-30T09:01:46;9.30;;;2.88;;
31770;SDS011;18343;50.152;8.182;2022-08-30T09:04:16;6.10;;;2.85;;
31770;SDS011;18343;50.152;8.182;2022-08-30T09:06:59;5.75;;;2.60;;
31770;SDS011;18343;50.152;8.182;2022-08-30T09:09:33;3.60;;;2.03;;
31770;SDS011;18343;50.152;8.182;2022-08-30T09:12:02;6.80;;;3.05;;
31770;SDS011;18343;50.152;8.182;2022-08-30T09:14:33;7.78;;;2.85;;
31770;SDS011;18343;50.152;8.182;2022-08-30T09:17:03;6.95;;;2.60;;
31770;SDS011;18343;50.152;8.182;2022-08-30T09:19:40;6.65;;;2.53;;
31770;SDS011;18343;50.152;8.182;2022-08-30T09:22:18;4.38;;;2.15;;
31770;SDS011;18343;50.152;8.182;2022-08-30T09:24:51;7.05;;;2.97;;
31770;SDS011;18343;50.152;8.182;2022-08-30T09:27:26;5.47;;;3.08;;
31770;SDS011;18343;50.152;8.182;2022-08-30T09:29:58;6.65;;;2.47;;
31770;SDS011;18343;50.152;8.182;2022-08-30T09:32:33;4.32;;;2.40;;
31770;SDS011;18343;50.152;8.182;2022-08-30T09:35:07;8.00;;;2.92;;
31770;SDS011;18343;50.152;8.182;2022-08-30T09:37:37;6.97;;;2.65;;
31770;SDS011;18343;50.152;8.182;2022-08-30T09:40:15;8.40;;;2.67;;
31770;SDS011;18343;50.152;8.182;2022-08-30T09:43:06;5.45;;;2.60;;
31770;SDS011;18343;50.152;8.182;2022-08-30T09:45:36;4.47;;;2.50;;
31770;SDS011;18343;50.152;8.182;2022-08-30T09:48:19;5.22;;;2.40;;
31770;SDS011;18343;50.152;8.182;2022-08-30T09:51:04;6.60;;;2.38;;
31770;SDS011;18343;50.152;8.182;2022-08-30T09:53:56;7.43;;;2.60;;
31770;SDS011;18343;50.152;8.182;2022-08-30T09:56:36;4.93;;;2.90;;
31770;SDS011;18343;50.152;8.182;2022-08-30T09:59:14;5.55;;;2.83;;
31770;SDS011;18343;50.152;8.182;2022-08-30T10:02:00;7.32;;;2.63;;
31770;SDS011;18343;50.152;8.182;2022-08-30T10:04:38;6.97;;;2.78;;
31770;SDS011;18343;50.152;8.182;2022-08-30T10:07:14;8.80;;;2.67;;
31770;SDS011;18343;50.152;8.182;2022-08-30T10:09:50;4.22;;;2.60;;
31770;SDS011;18343;50.152;8.182;2022-08-30T10:12:27;4.50;;;2.50;;
31770;SDS011;18343;50.152;8.182;2022-08-30T10:15:01;4.88;;;2.85;;
31770;SDS011;18343;50.152;8.182;2022-08-30T10:17:36;6.75;;;2.35;;
31770;SDS011;18343;50.152;8.182;2022-08-30T10:20:19;7.68;;;2.80;;
31770;SDS011;18343;50.152;8.182;2022-08-30T10:22:59;8.82;;;2.58;;
31770;SDS011;18343;50.152;8.182;2022-08-30T10:28:04;6.70;;;2.90;;
31770;SDS011;18343;50.152;8.182;2022-08-30T10:30:39;10.07;;;3.10;;
31770;SDS011;18343;50.152;8.182;2022-08-30T10:33:14;7.28;;;2.60;;
31770;SDS011;18343;50.152;8.182;2022-08-30T10:35:46;5.23;;;2.63;;
31770;SDS011;18343;50.152;8.182;2022-08-30T10:38:22;4.30;;;2.83;;
31770;SDS011;18343;50.152;8.182;2022-08-30T10:40:56;8.00;;;2.58;;
31770;SDS011;18343;50.152;8.182;2022-08-30T10:43:42;5.15;;;2.63;;
31770;SDS011;18343;50.152;8.182;2022-08-30T10:46:18;5.68;;;2.60;;
31770;SDS011;18343;50.152;8.182;2022-08-30T10:48:59;12.70;;;2.83;;
31770;SDS011;18343;50.152;8.182;2022-08-30T10:51:30;4.35;;;2.30;;
31770;SDS011;18343;50.152;8.182;2022-08-30T10:54:06;5.22;;;2.75;;
31770;SDS011;18343;50.152;8.182;2022-08-30T10:56:39;4.45;;;2.50;;
31770;SDS011;18343;50.152;8.182;2022-08-30T10:59:10;5.72;;;2.38;;
31770;SDS011;18343;50.152;8.182;2022-08-30T11:01:47;8.23;;;2.75;;
31770;SDS011;18343;50.152;8.182;2022-08-30T11:07:43;169.25;;;10.70;;
31770;SDS011;18343;50.152;8.182;2022-08-30T11:10:22;310.55;;;16.85;;
31770;SDS011;18343;50.152;8.182;2022-08-30T11:13:03;167.88;;;12.52;;
31770;SDS011;18343;50.152;8.182;2022-08-30T11:15:34;124.95;;;10.07;;
31770;SDS011;18343;50.152;8.182;2022-08-30T11:18:16;74.50;;;7.05;;
31770;SDS011;18343;50.152;8.182;2022-08-30T11:20:44;56.03;;;6.05;;
31770;SDS011;18343;50.152;8.182;2022-08-30T11:23:19;51.13;;;5.60;;
31770;SDS011;18343;50.152;8.182;2022-08-30T11:25:54;23.42;;;3.63;;
31770;SDS011;18343;50.152;8.182;2022-08-30T11:31:38;24.20;;;3.72;;
31770;SDS011;18343;50.152;8.182;2022-08-30T11:34:07;15.20;;;3.38;;
31770;SDS011;18343;50.152;8.182;2022-08-30T11:46:17;6.70;;;2.70;;
31770;SDS011;18343;50.152;8.182;2022-08-30T11:49:01;8.35;;;3.20;;
31770;SDS011;18343;50.152;8.182;2022-08-30T11:54:49;4.70;;;2.60;;
31770;SDS011;18343;50.152;8.182;2022-08-30T11:57:41;2.90;;;2.47;;
31770;SDS011;18343;50.152;8.182;2022-08-30T12:00:25;5.38;;;2.60;;
31770;SDS011;18343;50.152;8.182;2022-08-30T12:03:26;4.47;;;2.50;;
31770;SDS011;18343;50.152;8.182;2022-08-30T12:06:41;4.55;;;2.67;;
31770;SDS011;18343;50.152;8.182;2022-08-30T12:12:50;5.10;;;2.97;;
31770;SDS011;18343;50.152;8.182;2022-08-30T12:18:26;5.00;;;2.67;;
31770;SDS011;18343;50.152;8.182;2022-08-30T12:21:04;3.65;;;2.63;;
31770;SDS011;18343;50.152;8.182;2022-08-30T12:23:50;6.20;;;3.35;;
31770;SDS011;18343;50.152;8.182;2022-08-30T12:26:28;9.02;;;2.92;;
31770;SDS011;18343;50.152;8.182;2022-08-30T12:29:09;6.28;;;2.90;;
31770;SDS011;18343;50.152;8.182;2022-08-30T12:31:43;7.30;;;2.67;;
31770;SDS011;18343;50.152;8.182;2022-08-30T12:34:18;6.70;;;2.70;;
31770;SDS011;18343;50.152;8.182;2022-08-30T12:36:52;3.78;;;2.80;;
31770;SDS011;18343;50.152;8.182;2022-08-30T12:39:29;4.80;;;2.42;;
31770;SDS011;18343;50.152;8.182;2022-08-30T12:42:09;5.82;;;3.13;;
31770;SDS011;18343;50.152;8.182;2022-08-30T12:44:41;3.63;;;2.53;;
31770;SDS011;18343;50.152;8.182;2022-08-30T12:47:09;8.98;;;2.90;;
31770;SDS011;18343;50.152;8.182;2022-08-30T12:49:39;7.32;;;2.60;;
31770;SDS011;18343;50.152;8.182;2022-08-30T12:52:13;4.05;;;2.80;;
31770;SDS011;18343;50.152;8.182;2022-08-30T12:54:44;4.90;;;2.70;;
31770;SDS011;18343;50.152;8.182;2022-08-30T12:57:11;5.70;;;2.80;;
31770;SDS011;18343;50.152;8.182;2022-08-30T13:02:25;6.47;;;2.78;;
31770;SDS011;18343;50.152;8.182;2022-08-30T13:08:08;5.55;;;3.03;;
31770;SDS011;18343;50.152;8.182;2022-08-30T13:10:47;9.82;;;2.92;;
31770;SDS011;18343;50.152;8.182;2022-08-30T13:13:28;7.40;;;2.70;;
31770;SDS011;18343;50.152;8.182;2022-08-30T13:16:07;4.85;;;2.53;;
31770;SDS011;18343;50.152;8.182;2022-08-30T13:18:49;5.20;;;2.60;;
31770;SDS011;18343;50.152;8.182;2022-08-30T13:21:23;8.85;;;3.45;;
31770;SDS011;18343;50.152;8.182;2022-08-30T13:23:54;6.95;;;2.78;;
31770;SDS011;18343;50.152;8.182;2022-08-30T13:26:24;5.45;;;3.45;;
31770;SDS011;18343;50.152;8.182;2022-08-30T13:28:52;6.88;;;2.95;;
31770;SDS011;18343;50.152;8.182;2022-08-30T13:31:21;5.68;;;3.00;;
31770;SDS011;18343;50.152;8.182;2022-08-30T13:33:50;6.10;;;3.10;;
31770;SDS011;18343;50.152;8.182;2022-08-30T13:36:18;5.97;;;3.15;;
31770;SDS011;18343;50.152;8.182;2022-08-30T13:38:46;4.95;;;3.05;;
31770;SDS011;18343;50.152;8.182;2022-08-30T13:41:13;7.35;;;2.75;;
31770;SDS011;18343;50.152;8.182;2022-08-30T13:43:40;5.75;;;2.70;;
31770;SDS011;18343;50.152;8.182;2022-08-30T13:46:07;4.47;;;2.97;;
31770;SDS011;18343;50.152;8.182;2022-08-30T13:48:36;6.53;;;2.70;;
31770;SDS011;18343;50.152;8.182;2022-08-30T13:51:04;7.03;;;2.97;;
31770;SDS011;18343;50.152;8.182;2022-08-30T13:53:31;5.93;;;2.97;;
31770;SDS011;18343;50.152;8.182;2022-08-30T13:55:58;6.28;;;3.15;;
31770;SDS011;18343;50.152;8.182;2022-08-30T13:58:26;7.22;;;3.58;;
31770;SDS011;18343;50.152;8.182;2022-08-30T14:00:52;7.10;;;2.83;;
31770;SDS011;18343;50.152;8.182;2022-08-30T14:03:38;9.07;;;3.60;;
31770;SDS011;18343;50.152;8.182;2022-08-30T14:06:05;3.85;;;2.65;;
31770;SDS011;18343;50.152;8.182;2022-08-30T14:08:33;3.63;;;2.53;;
31770;SDS011;18343;50.152;8.182;2022-08-30T14:11:01;4.90;;;2.65;;
31770;SDS011;18343;50.152;8.182;2022-08-30T14:13:28;6.95;;;2.78;;
31770;SDS011;18343;50.152;8.182;2022-08-30T14:15:55;6.13;;;2.97;;
31770;SDS011;18343;50.152;8.182;2022-08-30T14:18:24;7.63;;;2.92;;
31770;SDS011;18343;50.152;8.182;2022-08-30T14:20:51;3.67;;;2.88;;
31770;SDS011;18343;50.152;8.182;2022-08-30T14:23:18;4.38;;;2.90;;
31770;SDS011;18343;50.152;8.182;2022-08-30T14:25:45;5.57;;;3.20;;
31770;SDS011;18343;50.152;8.182;2022-08-30T14:28:12;8.20;;;2.80;;
31770;SDS011;18343;50.152;8.182;2022-08-30T14:30:38;9.40;;;3.13;;
31770;SDS011;18343;50.152;8.182;2022-08-30T14:33:05;7.13;;;3.40;;
31770;SDS011;18343;50.152;8.182;2022-08-30T14:35:32;8.68;;;3.25;;
31770;SDS011;18343;50.152;8.182;2022-08-30T14:37:58;4.32;;;2.95;;
31770;SDS011;18343;50.152;8.182;2022-08-30T14:40:26;6.70;;;3.22;;
31770;SDS011;18343;50.152;8.182;2022-08-30T14:42:53;8.05;;;3.20;;
31770;SDS011;18343;50.152;8.182;2022-08-30T14:45:19;10.35;;;2.50;;
31770;SDS011;18343;50.152;8.182;2022-08-30T14:47:46;5.50;;;3.22;;
31770;SDS011;18343;50.152;8.182;2022-08-30T14:50:13;5.13;;;2.60;;
31770;SDS011;18343;50.152;8.182;2022-08-30T14:52:40;6.43;;;2.88;;
31770;SDS011;18343;50.152;8.182;2022-08-30T14:55:07;6.78;;;2.78;;
31770;SDS011;18343;50.152;8.182;2022-08-30T14:57:37;5.95;;;3.20;;
31770;SDS011;18343;50.152;8.182;2022-08-30T15:00:04;5.20;;;2.70;;
31770;SDS011;18343;50.152;8.182;2022-08-30T15:02:35;5.32;;;2.75;;
31770;SDS011;18343;50.152;8.182;2022-08-30T15:05:01;9.55;;;3.20;;
31770;SDS011;18343;50.152;8.182;2022-08-30T15:07:29;6.93;;;3.25;;
31770;SDS011;18343;50.152;8.182;2022-08-30T15:09:55;7.00;;;2.50;;
31770;SDS011;18343;50.152;8.182;2022-08-30T15:12:22;6.22;;;3.00;;
31770;SDS011;18343;50.152;8.182;2022-08-30T15:14:49;4.63;;;2.35;;
31770;SDS011;18343;50.152;8.182;2022-08-30T15:17:16;9.35;;;2.83;;
31770;SDS011;18343;50.152;8.182;2022-08-30T15:19:43;9.07;;;3.35;;
31770;SDS011;18343;50.152;8.182;2022-08-30T15:22:10;10.63;;;2.92;;
31770;SDS011;18343;50.152;8.182;2022-08-30T15:24:36;7.07;;;2.83;;
31770;SDS011;18343;50.152;8.182;2022-08-30T15:27:05;5.13;;;2.85;;
31770;SDS011;18343;50.152;8.182;2022-08-30T15:29:32;6.65;;;3.05;;
31770;SDS011;18343;50.152;8.182;2022-08-30T15:32:00;6.30;;;2.85;;
31770;SDS011;18343;50.152;8.182;2022-08-30T15:34:28;10.27;;;3.17;;
31770;SDS011;18343;50.152;8.182;2022-08-30T15:36:56;9.10;;;3.13;;
31770;SDS011;18343;50.152;8.182;2022-08-30T15:39:23;7.82;;;3.25;;
31770;SDS011;18343;50.152;8.182;2022-08-30T15:41:50;5.72;;;2.80;;
31770;SDS011;18343;50.152;8.182;2022-08-30T15:44:17;5.03;;;2.72;;
31770;SDS011;18343;50.152;8.182;2022-08-30T15:46:44;4.40;;;2.63;;
31770;SDS011;18343;50.152;8.182;2022-08-30T15:49:12;6.70;;;2.90;;
31770;SDS011;18343;50.152;8.182;2022-08-30T15:51:42;15.65;;;3.20;;
31770;SDS011;18343;50.152;8.182;2022-08-30T15:54:12;4.97;;;2.42;;
31770;SDS011;18343;50.152;8.182;2022-08-30T15:56:41;10.05;;;2.95;;
31770;SDS011;18343;50.152;8.182;2022-08-30T15:59:08;9.38;;;2.92;;
31770;SDS011;18343;50.152;8.182;2022-08-30T16:01:36;8.70;;;2.63;;
31770;SDS011;18343;50.152;8.182;2022-08-30T16:04:03;4.68;;;2.83;;
31770;SDS011;18343;50.152;8.182;2022-08-30T16:06:32;14.68;;;2.58;;
31770;SDS011;18343;50.152;8.182;2022-08-30T16:09:02;6.60;;;2.67;;
31770;SDS011;18343;50.152;8.182;2022-08-30T16:11:30;6.65;;;2.90;;
31770;SDS011;18343;50.152;8.182;2022-08-30T16:13:57;4.65;;;2.47;;
31770;SDS011;18343;50.152;8.182;2022-08-30T16:16:24;5.53;;;2.75;;
31770;SDS011;18343;50.152;8.182;2022-08-30T16:18:51;4.90;;;2.90;;
31770;SDS011;18343;50.152;8.182;2022-08-30T16:21:20;3.15;;;2.83;;
31770;SDS011;18343;50.152;8.182;2022-08-30T16:23:50;4.47;;;2.88;;
31770;SDS011;18343;50.152;8.182;2022-08-30T16:26:18;7.32;;;2.90;;
31770;SDS011;18343;50.152;8.182;2022-08-30T16:28:45;3.65;;;2.72;;
31770;SDS011;18343;50.152;8.182;2022-08-30T16:31:13;8.13;;;3.28;;
31770;SDS011;18343;50.152;8.182;2022-08-30T16:33:42;4.85;;;2.83;;
31770;SDS011;18343;50.152;8.182;2022-08-30T16:36:09;4.88;;;2.75;;
31770;SDS011;18343;50.152;8.182;2022-08-30T16:38:37;5.43;;;2.70;;
31770;SDS011;18343;50.152;8.182;2022-08-30T16:41:06;8.00;;;2.58;;
31770;SDS011;18343;50.152;8.182;2022-08-30T16:43:35;4.00;;;2.42;;
31770;SDS011;18343;50.152;8.182;2022-08-30T16:46:04;4.65;;;2.90;;
31770;SDS011;18343;50.152;8.182;2022-08-30T16:48:33;5.85;;;3.25;;
31770;SDS011;18343;50.152;8.182;2022-08-30T16:50:59;4.50;;;2.78;;
31770;SDS011;18343;50.152;8.182;2022-08-30T16:53:31;3.50;;;2.25;;
31770;SDS011;18343;50.152;8.182;2022-08-30T16:55:58;4.88;;;2.50;;
31770;SDS011;18343;50.152;8.182;2022-08-30T16:58:29;5.65;;;2.88;;
31770;SDS011;18343;50.152;8.182;2022-08-30T17:00:56;4.00;;;2.83;;
31770;SDS011;18343;50.152;8.182;2022-08-30T17:03:23;3.47;;;2.83;;
31770;SDS011;18343;50.152;8.182;2022-08-30T17:05:50;9.23;;;2.90;;
31770;SDS011;18343;50.152;8.182;2022-08-30T17:08:16;7.28;;;3.03;;
31770;SDS011;18343;50.152;8.182;2022-08-30T17:10:43;4.95;;;2.97;;
31770;SDS011;18343;50.152;8.182;2022-08-30T17:13:10;7.18;;;2.47;;
31770;SDS011;18343;50.152;8.182;2022-08-30T17:15:37;7.55;;;3.20;;
31770;SDS011;18343;50.152;8.182;2022-08-30T17:18:04;4.35;;;2.60;;
31770;SDS011;18343;50.152;8.182;2022-08-30T17:20:31;7.18;;;3.20;;
31770;SDS011;18343;50.152;8.182;2022-08-30T17:22:58;5.82;;;3.00;;
31770;SDS011;18343;50.152;8.182;2022-08-30T17:25:25;15.25;;;3.08;;
31770;SDS011;18343;50.152;8.182;2022-08-30T17:27:52;14.10;;;3.15;;
31770;SDS011;18343;50.152;8.182;2022-08-30T17:30:19;4.20;;;2.90;;
31770;SDS011;18343;50.152;8.182;2022-08-30T17:32:47;3.70;;;2.70;;
31770;SDS011;18343;50.152;8.182;2022-08-30T17:35:15;4.65;;;2.58;;
31770;SDS011;18343;50.152;8.182;2022-08-30T17:37:42;9.27;;;2.90;;
31770;SDS011;18343;50.152;8.182;2022-08-30T17:40:09;5.35;;;3.47;;
31770;SDS011;18343;50.152;8.182;2022-08-30T17:42:36;12.13;;;3.22;;
31770;SDS011;18343;50.152;8.182;2022-08-30T17:45:03;8.85;;;3.58;;
31770;SDS011;18343;50.152;8.182;2022-08-30T17:47:32;6.18;;;3.03;;
31770;SDS011;18343;50.152;8.182;2022-08-30T17:50:00;11.52;;;3.20;;
31770;SDS011;18343;50.152;8.182;2022-08-30T17:52:29;5.95;;;2.97;;
31770;SDS011;18343;50.152;8.182;2022-08-30T17:54:56;6.22;;;3.10;;
31770;SDS011;18343;50.152;8.182;2022-08-30T17:57:23;8.00;;;2.80;;
31770;SDS011;18343;50.152;8.182;2022-08-30T17:59:50;5.30;;;3.33;;
31770;SDS011;18343;50.152;8.182;2022-08-30T18:02:18;6.47;;;2.92;;
31770;SDS011;18343;50.152;8.182;2022-08-30T18:04:45;10.32;;;3.35;;
31770;SDS011;18343;50.152;8.182;2022-08-30T18:07:13;6.40;;;2.83;;
31770;SDS011;18343;50.152;8.182;2022-08-30T18:09:40;7.38;;;2.78;;
31770;SDS011;18343;50.152;8.182;2022-08-30T18:12:08;6.72;;;2.80;;
31770;SDS011;18343;50.152;8.182;2022-08-30T18:14:36;4.13;;;2.90;;
31770;SDS011;18343;50.152;8.182;2022-08-30T18:17:03;9.20;;;2.65;;
31770;SDS011;18343;50.152;8.182;2022-08-30T18:19:30;6.63;;;3.03;;
31770;SDS011;18343;50.152;8.182;2022-08-30T18:21:57;3.85;;;2.60;;
31770;SDS011;18343;50.152;8.182;2022-08-30T18:24:25;9.43;;;3.20;;
31770;SDS011;18343;50.152;8.182;2022-08-30T18:26:51;5.22;;;3.17;;
31770;SDS011;18343;50.152;8.182;2022-08-30T18:29:19;5.97;;;3.03;;
31770;SDS011;18343;50.152;8.182;2022-08-30T18:31:46;4.57;;;2.55;;
31770;SDS011;18343;50.152;8.182;2022-08-30T18:34:12;12.38;;;3.33;;
31770;SDS011;18343;50.152;8.182;2022-08-30T18:36:39;5.40;;;2.80;;
31770;SDS011;18343;50.152;8.182;2022-08-30T18:39:06;6.50;;;3.28;;
31770;SDS011;18343;50.152;8.182;2022-08-30T18:41:34;4.57;;;3.10;;
31770;SDS011;18343;50.152;8.182;2022-08-30T18:44:03;8.80;;;3.13;;
31770;SDS011;18343;50.152;8.182;2022-08-30T18:46:30;8.13;;;3.38;;
31770;SDS011;18343;50.152;8.182;2022-08-30T18:48:56;6.60;;;3.17;;
31770;SDS011;18343;50.152;8.182;2022-08-30T18:51:24;7.43;;;3.00;;
31770;SDS011;18343;50.152;8.182;2022-08-30T18:53:52;6.72;;;2.92;;
31770;SDS011;18343;50.152;8.182;2022-08-30T18:56:19;5.85;;;3.17;;
31770;SDS011;18343;50.152;8.182;2022-08-30T18:58:47;8.95;;;3.20;;
31770;SDS011;18343;50.152;8.182;2022-08-30T19:01:14;6.25;;;2.90;;
31770;SDS011;18343;50.152;8.182;2022-08-30T19:03:42;9.20;;;3.67;;
31770;SDS011;18343;50.152;8.182;2022-08-30T19:06:09;7.35;;;3.00;;
31770;SDS011;18343;50.152;8.182;2022-08-30T19:08:38;5.43;;;3.30;;
31770;SDS011;18343;50.152;8.182;2022-08-30T19:11:05;6.65;;;3.00;;
31770;SDS011;18343;50.152;8.182;2022-08-30T19:13:32;9.32;;;3.22;;
31770;SDS011;18343;50.152;8.182;2022-08-30T19:16:00;9.10;;;3.50;;
31770;SDS011;18343;50.152;8.182;2022-08-30T19:18:27;8.50;;;3.78;;
31770;SDS011;18343;50.152;8.182;2022-08-30T19:20:54;5.55;;;3.75;;
31770;SDS011;18343;50.152;8.182;2022-08-30T19:23:21;10.43;;;3.70;;
31770;SDS011;18343;50.152;8.182;2022-08-30T19:25:51;7.70;;;3.55;;
31770;SDS011;18343;50.152;8.182;2022-08-30T19:28:18;10.75;;;3.30;;
31770;SDS011;18343;50.152;8.182;2022-08-30T19:30:45;4.88;;;3.45;;
31770;SDS011;18343;50.152;8.182;2022-08-30T19:33:13;7.43;;;3.63;;
31770;SDS011;18343;50.152;8.182;2022-08-30T19:35:41;5.75;;;3.05;;
31770;SDS011;18343;50.152;8.182;2022-08-30T19:38:08;10.10;;;3.33;;
31770;SDS011;18343;50.152;8.182;2022-08-30T19:40:34;5.28;;;2.72;;